createdAt,value
2023-05-02T00:00:10.932Z,530.00
2023-05-02T00:01:10.944Z,529.00
2023-05-02T00:02:11.122Z,527.00
2023-05-02T00:03:10.998Z,536.00
2023-05-02T00:04:11.017Z,526.00
2023-05-02T00:05:10.899Z,530.00
2023-05-02T00:06:10.882Z,533.00
2023-05-02T00:07:10.921Z,530.00
2023-05-02T00:08:10.866Z,534.00
2023-05-02T00:09:10.877Z,532.00
2023-05-02T00:10:10.887Z,529.00
2023-05-02T00:11:10.867Z,532.00
2023-05-02T00:12:10.844Z,535.00
2023-05-02T00:13:10.818Z,529.00
2023-05-02T00:14:10.876Z,531.00
2023-05-02T00:15:10.820Z,529.00
2023-05-02T00:16:10.831Z,534.00
2023-05-02T00:17:10.886Z,533.00
2023-05-02T00:18:10.878Z,531.00
2023-05-02T00:19:10.823Z,530.00
2023-05-02T00:20:10.802Z,533.00
2023-05-02T00:21:10.753Z,535.00
2023-05-02T00:22:10.756Z,531.00
2023-05-02T00:23:10.766Z,527.00
2023-05-02T00:24:10.767Z,534.00
2023-05-02T00:25:10.761Z,530.00
2023-05-02T00:26:10.768Z,533.00
2023-05-02T00:27:10.753Z,535.00
2023-05-02T00:28:10.749Z,534.00
2023-05-02T00:29:10.712Z,531.00
2023-05-02T00:30:10.691Z,528.00
2023-05-02T00:31:10.831Z,528.00
2023-05-02T00:32:10.724Z,531.00
2023-05-02T00:33:10.712Z,533.00
2023-05-02T00:34:10.693Z,528.00
2023-05-02T00:35:10.777Z,532.00
2023-05-02T00:36:10.671Z,528.00
2023-05-02T00:37:10.634Z,530.00
2023-05-02T00:38:10.685Z,531.00
2023-05-02T00:39:10.671Z,532.00
2023-05-02T00:40:10.641Z,529.00
2023-05-02T00:41:10.636Z,533.00
2023-05-02T00:42:10.622Z,531.00
2023-05-02T00:43:10.621Z,526.00
2023-05-02T00:44:10.625Z,534.00
2023-05-02T00:45:10.605Z,529.00
2023-05-02T00:46:10.675Z,534.00
2023-05-02T00:47:10.604Z,535.00
2023-05-02T00:48:10.652Z,522.00
2023-05-02T00:49:10.589Z,531.00
2023-05-02T00:50:10.562Z,531.00
2023-05-02T00:51:10.553Z,532.00
2023-05-02T00:52:10.613Z,530.00
2023-05-02T00:53:10.573Z,535.00
2023-05-02T00:54:10.582Z,531.00
2023-05-02T00:55:10.705Z,535.00
2023-05-02T00:56:10.544Z,531.00
2023-05-02T00:57:10.573Z,530.00
2023-05-02T00:58:10.518Z,531.00
2023-05-02T00:59:10.519Z,532.00
2023-05-02T01:00:10.484Z,529.00
2023-05-02T01:01:10.536Z,524.00
2023-05-02T01:02:10.607Z,525.00
2023-05-02T01:03:10.519Z,532.00
2023-05-02T01:04:10.635Z,533.00
2023-05-02T01:05:10.499Z,521.00
2023-05-02T01:06:10.543Z,531.00
2023-05-02T01:07:10.479Z,528.00
2023-05-02T01:08:10.438Z,532.00
2023-05-02T01:09:10.455Z,531.00
2023-05-02T01:10:10.466Z,532.00
2023-05-02T01:11:10.442Z,527.00
2023-05-02T01:12:10.474Z,530.00
2023-05-02T01:13:10.452Z,528.00
2023-05-02T01:14:10.607Z,530.00
2023-05-02T01:15:10.434Z,527.00
2023-05-02T01:16:10.430Z,526.00
2023-05-02T01:17:10.428Z,525.00
2023-05-02T01:18:10.403Z,530.00
2023-05-02T01:19:10.388Z,532.00
2023-05-02T01:20:10.402Z,528.00
2023-05-02T01:21:10.354Z,530.00
2023-05-02T01:22:10.370Z,531.00
2023-05-02T01:23:10.367Z,530.00
2023-05-02T01:24:10.371Z,527.00
2023-05-02T01:25:10.370Z,526.00
2023-05-02T01:26:10.321Z,532.00
2023-05-02T01:27:10.353Z,528.00
2023-05-02T01:28:10.355Z,531.00
2023-05-02T01:29:10.313Z,528.00
2023-05-02T01:30:10.327Z,526.00
2023-05-02T01:31:10.418Z,526.00
2023-05-02T01:32:10.299Z,531.00
2023-05-02T01:33:10.312Z,530.00
2023-05-02T01:34:10.322Z,529.00
2023-05-02T01:35:10.349Z,531.00
2023-05-02T01:36:10.241Z,531.00
2023-05-02T01:37:10.318Z,529.00
2023-05-02T01:38:10.310Z,530.00
2023-05-02T01:39:10.338Z,526.00
2023-05-02T01:40:10.343Z,529.00
2023-05-02T01:41:10.336Z,529.00
2023-05-02T01:42:10.347Z,527.00
2023-05-02T01:43:10.360Z,530.00
2023-05-02T01:44:10.374Z,529.00
2023-05-02T01:45:10.402Z,529.00
2023-05-02T01:46:10.456Z,532.00
2023-05-02T01:47:10.442Z,532.00
2023-05-02T01:48:10.512Z,532.00
2023-05-02T01:49:10.449Z,529.00
2023-05-02T01:50:10.534Z,524.00
2023-05-02T01:51:10.496Z,531.00
2023-05-02T01:52:10.512Z,528.00
2023-05-02T01:53:10.545Z,529.00
2023-05-02T01:54:10.526Z,530.00
2023-05-02T01:55:10.542Z,531.00
2023-05-02T01:56:10.613Z,529.00
2023-05-02T01:57:10.570Z,529.00
2023-05-02T01:58:10.573Z,529.00
2023-05-02T01:59:10.626Z,530.00
2023-05-02T02:00:10.636Z,533.00
2023-05-02T02:01:10.675Z,530.00
2023-05-02T02:02:10.641Z,527.00
2023-05-02T02:03:10.743Z,530.00
2023-05-02T02:04:10.747Z,527.00
2023-05-02T02:05:10.723Z,528.00
2023-05-02T02:06:10.746Z,528.00
2023-05-02T02:07:10.735Z,526.00
2023-05-02T02:08:10.736Z,533.00
2023-05-02T02:09:10.742Z,528.00
2023-05-02T02:10:10.780Z,525.00
2023-05-02T02:11:10.807Z,530.00
2023-05-02T02:12:10.800Z,532.00
2023-05-02T02:13:10.824Z,529.00
2023-05-02T02:14:10.816Z,530.00
2023-05-02T02:15:10.877Z,529.00
2023-05-02T02:16:10.922Z,532.00
2023-05-02T02:17:10.947Z,528.00
2023-05-02T02:18:10.983Z,531.00
2023-05-02T02:19:10.926Z,530.00
2023-05-02T02:20:10.964Z,525.00
2023-05-02T02:21:10.978Z,529.00
2023-05-02T02:22:10.982Z,530.00
2023-05-02T02:23:11.004Z,531.00
2023-05-02T02:24:10.996Z,533.00
2023-05-02T02:25:11.028Z,530.00
2023-05-02T02:26:11.079Z,529.00
2023-05-02T02:27:11.078Z,524.00
2023-05-02T02:28:11.077Z,527.00
2023-05-02T02:29:11.088Z,531.00
2023-05-02T02:30:11.091Z,524.00
2023-05-02T02:31:11.178Z,530.00
2023-05-02T02:32:11.117Z,526.00
2023-05-02T02:33:11.223Z,530.00
2023-05-02T02:34:11.175Z,529.00
2023-05-02T02:35:11.169Z,526.00
2023-05-02T02:36:11.242Z,531.00
2023-05-02T02:37:11.220Z,531.00
2023-05-02T02:38:11.237Z,527.00
2023-05-02T02:39:11.259Z,530.00
2023-05-02T02:40:11.264Z,528.00
2023-05-02T02:41:11.369Z,527.00
2023-05-02T02:42:11.306Z,526.00
2023-05-02T02:43:11.326Z,531.00
2023-05-02T02:44:13.434Z,532.00
2023-05-02T02:45:11.345Z,530.00
2023-05-02T02:46:11.471Z,529.00
2023-05-02T02:47:11.422Z,526.00
2023-05-02T02:48:11.482Z,533.00
2023-05-02T02:49:11.430Z,530.00
2023-05-02T02:50:11.440Z,530.00
2023-05-02T02:51:11.446Z,527.00
2023-05-02T02:52:11.468Z,530.00
2023-05-02T02:53:11.507Z,529.00
2023-05-02T02:54:25.401Z,530.00
2023-05-02T02:55:12.495Z,530.00
2023-05-02T02:56:11.527Z,530.00
2023-05-02T02:57:11.492Z,530.00
2023-05-02T02:58:11.452Z,529.00
2023-05-02T02:59:11.452Z,531.00
2023-05-02T03:00:11.497Z,531.00
2023-05-02T03:01:11.494Z,529.00
2023-05-02T03:02:11.517Z,530.00
2023-05-02T03:03:11.489Z,525.00
2023-05-02T03:04:11.468Z,529.00
2023-05-02T03:05:11.442Z,526.00
2023-05-02T03:06:11.478Z,529.00
2023-05-02T03:07:11.419Z,530.00
2023-05-02T03:08:11.610Z,529.00
2023-05-02T03:09:11.413Z,526.00
2023-05-02T03:10:11.419Z,535.00
2023-05-02T03:11:11.417Z,525.00
2023-05-02T03:12:11.384Z,529.00
2023-05-02T03:13:11.386Z,530.00
2023-05-02T03:14:11.393Z,528.00
2023-05-02T03:15:11.376Z,529.00
2023-05-02T03:16:11.392Z,529.00
2023-05-02T03:17:11.347Z,531.00
2023-05-02T03:18:11.466Z,527.00
2023-05-02T03:19:11.384Z,527.00
2023-05-02T03:20:11.431Z,527.00
2023-05-02T03:21:11.470Z,534.00
2023-05-02T03:22:11.514Z,524.00
2023-05-02T03:23:11.556Z,532.00
2023-05-02T03:24:11.577Z,525.00
2023-05-02T03:25:11.621Z,527.00
2023-05-02T03:26:11.617Z,533.00
2023-05-02T03:27:11.698Z,527.00
2023-05-02T03:28:11.667Z,529.00
2023-05-02T03:29:11.751Z,527.00
2023-05-02T03:30:11.748Z,531.00
2023-05-02T03:31:11.824Z,531.00
2023-05-02T03:32:11.974Z,532.00
2023-05-02T03:33:11.869Z,528.00
2023-05-02T03:34:11.982Z,526.00
2023-05-02T03:35:11.957Z,528.00
2023-05-02T03:36:11.954Z,529.00
2023-05-02T03:37:11.971Z,524.00
2023-05-02T03:38:12.006Z,526.00
2023-05-02T03:39:12.020Z,528.00
2023-05-02T03:40:12.195Z,531.00
2023-05-02T03:41:12.135Z,529.00
2023-05-02T03:42:12.329Z,527.00
2023-05-02T03:43:12.170Z,531.00
2023-05-02T03:44:12.219Z,529.00
2023-05-02T03:45:12.241Z,528.00
2023-05-02T03:46:12.319Z,530.00
2023-05-02T03:47:12.297Z,524.00
2023-05-02T03:48:12.324Z,528.00
2023-05-02T03:49:12.349Z,524.00
2023-05-02T03:50:12.400Z,532.00
2023-05-02T03:51:12.408Z,535.00
2023-05-02T03:52:12.474Z,531.00
2023-05-02T03:53:12.490Z,529.00
2023-05-02T03:54:12.488Z,532.00
2023-05-02T03:55:12.549Z,526.00
2023-05-02T03:56:12.593Z,529.00
2023-05-02T03:57:12.613Z,524.00
2023-05-02T03:58:12.648Z,531.00
2023-05-02T03:59:12.694Z,527.00
2023-05-02T04:00:12.757Z,526.00
2023-05-02T04:01:12.743Z,533.00
2023-05-02T04:02:12.818Z,528.00
2023-05-02T04:03:12.878Z,534.00
2023-05-02T04:04:12.867Z,533.00
2023-05-02T04:05:12.866Z,529.00
2023-05-02T04:06:13.071Z,527.00
2023-05-02T04:07:12.942Z,531.00
2023-05-02T04:08:12.993Z,527.00
2023-05-02T04:09:13.026Z,526.00
2023-05-02T04:10:13.092Z,524.00
2023-05-02T04:11:13.040Z,526.00
2023-05-02T04:12:13.141Z,531.00
2023-05-02T04:13:13.126Z,529.00
2023-05-02T04:14:13.148Z,528.00
2023-05-02T04:15:13.184Z,531.00
2023-05-02T04:16:13.232Z,527.00
2023-05-02T04:17:13.306Z,526.00
2023-05-02T04:18:13.283Z,527.00
2023-05-02T04:19:13.320Z,517.00
2023-05-02T04:20:13.340Z,525.00
2023-05-02T04:21:13.356Z,520.00
2023-05-02T04:22:13.420Z,522.00
2023-05-02T04:23:13.414Z,519.00
2023-05-02T04:24:13.456Z,520.00
2023-05-02T04:25:13.463Z,519.00
2023-05-02T04:26:13.539Z,514.00
2023-05-02T04:27:15.315Z,515.00
2023-05-02T04:28:13.522Z,515.00
2023-05-02T04:29:13.600Z,516.00
2023-05-02T04:30:13.591Z,514.00
2023-05-02T04:31:13.729Z,516.00
2023-05-02T04:32:13.647Z,513.00
2023-05-02T04:33:13.745Z,510.00
2023-05-02T04:34:13.726Z,511.00
2023-05-02T04:35:13.787Z,507.00
2023-05-02T04:36:13.799Z,512.00
2023-05-02T04:37:13.846Z,509.00
2023-05-02T04:38:13.853Z,507.00
2023-05-02T04:39:13.919Z,507.00
2023-05-02T04:40:13.935Z,504.00
2023-05-02T04:41:13.989Z,504.00
2023-05-02T04:42:13.982Z,503.00
2023-05-02T04:43:13.985Z,506.00
2023-05-02T04:44:14.057Z,509.00
2023-05-02T04:45:14.102Z,503.00
2023-05-02T04:46:14.121Z,507.00
2023-05-02T04:47:14.187Z,507.00
2023-05-02T04:48:14.241Z,509.00
2023-05-02T04:49:14.193Z,504.00
2023-05-02T04:50:14.214Z,503.00
2023-05-02T04:51:16.795Z,504.00
2023-05-02T04:52:14.253Z,506.00
2023-05-02T04:53:14.259Z,505.00
2023-05-02T04:54:14.224Z,509.00
2023-05-02T04:55:14.238Z,507.00
2023-05-02T04:56:14.250Z,504.00
2023-05-02T04:57:14.245Z,504.00
2023-05-02T04:58:14.273Z,504.00
2023-05-02T04:59:14.203Z,505.00
2023-05-02T05:00:14.204Z,503.00
2023-05-02T05:01:14.288Z,503.00
2023-05-02T05:02:14.347Z,501.00
2023-05-02T05:03:14.236Z,504.00
2023-05-02T05:04:14.374Z,506.00
2023-05-02T05:05:14.259Z,503.00
2023-05-02T05:06:14.217Z,505.00
2023-05-02T05:07:14.412Z,503.00
2023-05-02T05:08:14.175Z,510.00
2023-05-02T05:09:14.181Z,505.00
2023-05-02T05:10:14.140Z,502.00
2023-05-02T05:11:14.153Z,505.00
2023-05-02T05:12:14.141Z,503.00
2023-05-02T05:13:14.179Z,503.00
2023-05-02T05:14:14.098Z,505.00
2023-05-02T05:15:14.104Z,505.00
2023-05-02T05:16:14.148Z,503.00
2023-05-02T05:17:14.090Z,504.00
2023-05-02T05:18:14.210Z,505.00
2023-05-02T05:19:14.089Z,503.00
2023-05-02T05:20:14.101Z,505.00
2023-05-02T05:21:14.109Z,507.00
2023-05-02T05:22:14.054Z,506.00
2023-05-02T05:23:14.058Z,504.00
2023-05-02T05:24:14.061Z,500.00
2023-05-02T05:25:14.072Z,503.00
2023-05-02T05:26:14.054Z,505.00
2023-05-02T05:27:14.048Z,500.00
2023-05-02T05:28:14.046Z,503.00
2023-05-02T05:29:14.060Z,509.00
2023-05-02T05:30:14.009Z,507.00
2023-05-02T05:31:16.598Z,500.00
2023-05-02T05:32:14.244Z,503.00
2023-05-02T05:33:14.059Z,500.00
2023-05-02T05:34:14.131Z,500.00
2023-05-02T05:35:13.974Z,500.00
2023-05-02T05:36:14.025Z,500.00
2023-05-02T05:37:13.978Z,500.00
2023-05-02T05:38:14.014Z,501.00
2023-05-02T05:39:13.989Z,502.00
2023-05-02T05:40:13.969Z,500.00
2023-05-02T05:41:13.976Z,502.00
2023-05-02T05:42:13.942Z,506.00
2023-05-02T05:43:13.951Z,517.00
2023-05-02T05:44:13.963Z,512.00
2023-05-02T05:45:13.966Z,512.00
2023-05-02T05:46:13.900Z,500.00
2023-05-02T05:47:13.972Z,504.00
2023-05-02T05:48:13.958Z,525.00
2023-05-02T05:49:13.903Z,541.00
2023-05-02T05:50:13.915Z,545.00
2023-05-02T05:51:13.904Z,549.00
2023-05-02T05:52:13.915Z,563.00
2023-05-02T05:53:13.868Z,567.00
2023-05-02T05:54:13.850Z,587.00
2023-05-02T05:55:13.888Z,607.00
2023-05-02T05:56:13.883Z,614.00
2023-05-02T05:57:13.882Z,618.00
2023-05-02T05:58:13.841Z,632.00
2023-05-02T05:59:13.855Z,641.00
2023-05-02T06:00:13.870Z,650.00
2023-05-02T06:01:13.843Z,660.00
2023-05-02T06:02:13.834Z,669.00
2023-05-02T06:03:13.949Z,704.00
2023-05-02T06:04:14.116Z,729.00
2023-05-02T06:05:13.834Z,751.00
2023-05-02T06:06:13.829Z,781.00
2023-05-02T06:07:14.161Z,828.00
2023-05-02T06:08:13.740Z,852.00
2023-05-02T06:09:13.761Z,889.00
2023-05-02T06:10:14.175Z,904.00
2023-05-02T06:11:13.742Z,924.00
2023-05-02T06:12:14.188Z,922.00
2023-05-02T06:13:13.752Z,942.00
2023-05-02T06:14:13.757Z,964.00
2023-05-02T06:15:13.716Z,981.00
2023-05-02T06:16:13.754Z,992.00
2023-05-02T06:17:13.713Z,1022.00
2023-05-02T06:18:13.805Z,1032.00
2023-05-02T06:19:13.713Z,1050.00
2023-05-02T06:20:13.687Z,1055.00
2023-05-02T06:21:13.643Z,1087.00
2023-05-02T06:22:13.671Z,1103.00
2023-05-02T06:23:13.671Z,1116.00
2023-05-02T06:24:13.718Z,1120.00
2023-05-02T06:25:13.830Z,1113.00
2023-05-02T06:26:13.877Z,1137.00
2023-05-02T06:27:13.912Z,1170.00
2023-05-02T06:28:13.941Z,1170.00
2023-05-02T06:29:13.985Z,1178.00
2023-05-02T06:30:14.090Z,1197.00
2023-05-02T06:31:14.197Z,1195.00
2023-05-02T06:32:14.319Z,1198.00
2023-05-02T06:33:14.316Z,1209.00
2023-05-02T06:34:14.325Z,1230.00
2023-05-02T06:35:14.409Z,1228.00
2023-05-02T06:36:14.464Z,1226.00
2023-05-02T06:37:14.679Z,1019.00
2023-05-02T06:38:14.782Z,855.00
2023-05-02T06:39:14.570Z,762.00
2023-05-02T06:40:14.781Z,772.00
2023-05-02T06:41:17.272Z,709.00
2023-05-02T06:42:15.181Z,686.00
2023-05-02T06:43:14.777Z,764.00
2023-05-02T06:44:14.663Z,788.00
2023-05-02T06:45:14.640Z,792.00
2023-05-02T06:46:14.710Z,794.00
2023-05-02T06:47:14.746Z,853.00
2023-05-02T06:48:14.704Z,863.00
2023-05-02T06:49:14.615Z,878.00
2023-05-02T06:50:14.569Z,882.00
2023-05-02T06:51:14.618Z,889.00
2023-05-02T06:52:14.611Z,911.00
2023-05-02T06:53:14.561Z,934.00
2023-05-02T06:54:14.595Z,923.00
2023-05-02T06:55:14.536Z,941.00
2023-05-02T06:56:14.665Z,972.00
2023-05-02T06:57:14.561Z,968.00
2023-05-02T06:58:14.567Z,971.00
2023-05-02T06:59:14.652Z,979.00
2023-05-02T07:00:14.550Z,999.00
2023-05-02T07:01:14.589Z,1008.00
2023-05-02T07:02:14.538Z,1024.00
2023-05-02T07:03:14.502Z,1039.00
2023-05-02T07:04:14.641Z,1040.00
2023-05-02T07:05:14.473Z,1061.00
2023-05-02T07:06:14.521Z,1067.00
2023-05-02T07:07:14.530Z,1076.00
2023-05-02T07:08:14.517Z,1082.00
2023-05-02T07:09:14.545Z,1083.00
2023-05-02T07:10:14.679Z,1101.00
2023-05-02T07:11:14.446Z,1112.00
2023-05-02T07:12:14.461Z,1129.00
2023-05-02T07:13:14.464Z,1153.00
2023-05-02T07:14:14.728Z,1163.00
2023-05-02T07:15:14.410Z,1166.00
2023-05-02T07:16:14.694Z,1176.00
2023-05-02T07:17:14.686Z,1215.00
2023-05-02T07:18:14.737Z,1206.00
2023-05-02T07:19:14.733Z,1216.00
2023-05-02T07:20:14.469Z,1251.00
2023-05-02T07:21:14.483Z,1259.00
2023-05-02T07:22:14.433Z,1265.00
2023-05-02T07:23:14.669Z,1271.00
2023-05-02T07:24:14.704Z,1278.00
2023-05-02T07:25:14.383Z,1282.00
2023-05-02T07:26:14.430Z,1293.00
2023-05-02T07:27:14.383Z,1284.00
2023-05-02T07:28:14.663Z,1260.00
2023-05-02T07:29:14.779Z,1291.00
2023-05-02T07:30:14.690Z,1283.00
2023-05-02T07:31:14.507Z,1285.00
2023-05-02T07:32:14.614Z,1314.00
2023-05-02T07:33:14.538Z,1294.00
2023-05-02T07:34:14.622Z,932.00
2023-05-02T07:35:14.568Z,624.00
2023-05-02T07:36:14.626Z,558.00
2023-05-02T07:37:14.764Z,566.00
2023-05-02T07:38:14.980Z,597.00
2023-05-02T07:39:14.916Z,615.00
2023-05-02T07:40:14.758Z,628.00
2023-05-02T07:41:14.677Z,640.00
2023-05-02T07:42:15.286Z,652.00
2023-05-02T07:43:14.781Z,680.00
2023-05-02T07:44:14.824Z,687.00
2023-05-02T07:45:14.850Z,720.00
2023-05-02T07:46:15.126Z,735.00
2023-05-02T07:47:15.208Z,744.00
2023-05-02T07:48:15.021Z,762.00
2023-05-02T07:49:15.253Z,783.00
2023-05-02T07:50:14.967Z,798.00
2023-05-02T07:51:14.960Z,806.00
2023-05-02T07:52:15.044Z,812.00
2023-05-02T07:53:15.071Z,835.00
2023-05-02T07:54:15.162Z,890.00
2023-05-02T07:55:15.263Z,899.00
2023-05-02T07:56:15.270Z,918.00
2023-05-02T07:57:15.318Z,915.00
2023-05-02T07:58:18.636Z,933.00
2023-05-02T07:59:15.343Z,943.00
2023-05-02T08:00:15.446Z,949.00
2023-05-02T08:01:15.673Z,967.00
2023-05-02T08:02:15.350Z,982.00
2023-05-02T08:03:15.441Z,1009.00
2023-05-02T08:04:15.959Z,1031.00
2023-05-02T08:05:15.505Z,1001.00
2023-05-02T08:06:15.298Z,845.00
2023-05-02T08:07:17.211Z,767.00
2023-05-02T08:08:15.285Z,692.00
2023-05-02T08:09:16.218Z,627.00
2023-05-02T08:10:15.266Z,615.00
2023-05-02T08:11:15.274Z,613.00
2023-05-02T08:12:15.313Z,579.00
2023-05-02T08:13:15.313Z,567.00
2023-05-02T08:14:15.235Z,565.00
2023-05-02T08:15:15.249Z,555.00
2023-05-02T08:16:15.306Z,536.00
2023-05-02T08:17:15.317Z,513.00
2023-05-02T08:18:15.285Z,506.00
2023-05-02T08:19:15.764Z,516.00
2023-05-02T08:20:15.239Z,512.00
2023-05-02T08:21:15.227Z,515.00
2023-05-02T08:22:15.310Z,501.00
2023-05-02T08:23:15.347Z,501.00
2023-05-02T08:24:15.210Z,504.00
2023-05-02T08:25:15.196Z,501.00
2023-05-02T08:26:15.408Z,512.00
2023-05-02T08:27:15.282Z,566.00
2023-05-02T08:28:15.305Z,567.00
2023-05-02T08:29:15.723Z,578.00
2023-05-02T08:30:21.283Z,544.00
2023-05-02T08:31:15.280Z,527.00
2023-05-02T08:32:15.356Z,506.00
2023-05-02T08:33:15.242Z,463.00
2023-05-02T08:34:15.412Z,414.00
2023-05-02T08:35:15.370Z,400.00
2023-05-02T08:36:15.291Z,417.00
2023-05-02T08:37:15.241Z,463.00
2023-05-02T08:38:15.407Z,496.00
2023-05-02T08:39:15.222Z,509.00
2023-05-02T08:40:15.194Z,500.00
2023-05-02T08:41:15.210Z,530.00
2023-05-02T08:42:15.219Z,545.00
2023-05-02T08:43:15.247Z,568.00
2023-05-02T08:44:15.146Z,602.00
2023-05-02T08:45:16.776Z,611.00
2023-05-02T08:46:15.276Z,625.00
2023-05-02T08:47:15.306Z,638.00
2023-05-02T08:48:15.185Z,640.00
2023-05-02T08:49:15.154Z,645.00
2023-05-02T08:50:15.130Z,650.00
2023-05-02T08:51:15.149Z,661.00
2023-05-02T08:52:15.147Z,677.00
2023-05-02T08:53:15.102Z,688.00
2023-05-02T08:54:15.155Z,714.00
2023-05-02T08:55:15.222Z,741.00
2023-05-02T08:56:15.322Z,755.00
2023-05-02T08:57:15.188Z,807.00
2023-05-02T08:58:16.318Z,855.00
2023-05-02T08:59:15.328Z,936.00
2023-05-02T09:00:15.335Z,1048.00
2023-05-02T09:01:15.630Z,1065.00
2023-05-02T09:02:15.449Z,1061.00
2023-05-02T09:03:15.527Z,1069.00
2023-05-02T09:04:15.802Z,1085.00
2023-05-02T09:05:15.691Z,1111.00
2023-05-02T09:06:15.670Z,1102.00
2023-05-02T09:07:15.822Z,1102.00
2023-05-02T09:08:15.767Z,1130.00
2023-05-02T09:09:17.118Z,1150.00
2023-05-02T09:10:15.704Z,1177.00
2023-05-02T09:11:15.681Z,1189.00
2023-05-02T09:12:15.708Z,1212.00
2023-05-02T09:13:15.743Z,1237.00
2023-05-02T09:14:15.724Z,1241.00
2023-05-02T09:15:18.241Z,1226.00
2023-05-02T09:16:15.770Z,1077.00
2023-05-02T09:17:15.787Z,1156.00
2023-05-02T09:18:15.653Z,1192.00
2023-05-02T09:19:15.664Z,1199.00
2023-05-02T09:20:15.698Z,1238.00
2023-05-02T09:21:17.920Z,1240.00
2023-05-02T09:22:15.609Z,1242.00
2023-05-02T09:23:15.677Z,1245.00
2023-05-02T09:24:15.592Z,1258.00
2023-05-02T09:25:15.598Z,1290.00
2023-05-02T09:26:15.648Z,1338.00
2023-05-02T09:27:15.706Z,1364.00
2023-05-02T09:28:15.737Z,1357.00
2023-05-02T09:29:15.611Z,1292.00
2023-05-02T09:30:15.873Z,1126.00
2023-05-02T09:31:18.739Z,765.00
2023-05-02T09:32:16.855Z,634.00
2023-05-02T09:33:16.969Z,628.00
2023-05-02T09:34:15.771Z,648.00
2023-05-02T09:35:15.642Z,649.00
2023-05-02T09:36:15.605Z,669.00
2023-05-02T09:37:15.551Z,685.00
2023-05-02T09:38:15.496Z,735.00
2023-05-02T09:39:15.523Z,753.00
2023-05-02T09:40:15.781Z,771.00
2023-05-02T09:41:15.552Z,816.00
2023-05-02T09:42:15.616Z,856.00
2023-05-02T09:43:15.714Z,876.00
2023-05-02T09:44:15.696Z,884.00
2023-05-02T09:45:15.707Z,891.00
2023-05-02T09:46:15.828Z,930.00
2023-05-02T09:47:15.860Z,953.00
2023-05-02T09:48:16.294Z,953.00
2023-05-02T09:49:15.970Z,970.00
2023-05-02T09:50:15.904Z,957.00
2023-05-02T09:51:15.998Z,954.00
2023-05-02T09:52:16.000Z,960.00
2023-05-02T09:53:16.204Z,952.00
2023-05-02T09:54:15.975Z,948.00
2023-05-02T09:55:16.021Z,945.00
2023-05-02T09:56:16.034Z,938.00
2023-05-02T09:57:16.018Z,961.00
2023-05-02T09:58:16.093Z,948.00
2023-05-02T09:59:16.168Z,960.00
2023-05-02T10:00:16.149Z,946.00
2023-05-02T10:01:16.131Z,954.00
2023-05-02T10:02:16.131Z,955.00
2023-05-02T10:03:16.323Z,953.00
2023-05-02T10:04:16.302Z,959.00
2023-05-02T10:05:16.248Z,942.00
2023-05-02T10:06:16.283Z,953.00
2023-05-02T10:07:16.238Z,957.00
2023-05-02T10:08:16.258Z,955.00
2023-05-02T10:09:20.560Z,960.00
2023-05-02T10:10:17.290Z,961.00
2023-05-02T10:11:16.238Z,962.00
2023-05-02T10:12:16.235Z,964.00
2023-05-02T10:13:16.202Z,963.00
2023-05-02T10:14:16.212Z,978.00
2023-05-02T10:15:16.215Z,976.00
2023-05-02T10:16:16.281Z,970.00
2023-05-02T10:17:16.198Z,973.00
2023-05-02T10:18:16.211Z,968.00
2023-05-02T10:19:16.237Z,967.00
2023-05-02T10:20:16.352Z,968.00
2023-05-02T10:21:16.214Z,967.00
2023-05-02T10:22:16.193Z,984.00
2023-05-02T10:23:16.223Z,982.00
2023-05-02T10:24:16.178Z,976.00
2023-05-02T10:25:16.115Z,973.00
2023-05-02T10:26:16.183Z,967.00
2023-05-02T10:27:16.310Z,963.00
2023-05-02T10:28:16.159Z,968.00
2023-05-02T10:29:16.144Z,970.00
2023-05-02T10:30:16.192Z,982.00
2023-05-02T10:31:16.184Z,974.00
2023-05-02T10:32:16.139Z,966.00
2023-05-02T10:33:16.137Z,970.00
2023-05-02T10:34:16.071Z,964.00
2023-05-02T10:35:16.159Z,970.00
2023-05-02T10:36:16.087Z,982.00
2023-05-02T10:37:16.163Z,970.00
2023-05-02T10:38:16.105Z,980.00
2023-05-02T10:39:16.121Z,973.00
2023-05-02T10:40:16.158Z,978.00
2023-05-02T10:41:16.178Z,987.00
2023-05-02T10:42:16.144Z,986.00
2023-05-02T10:43:16.138Z,985.00
2023-05-02T10:44:16.141Z,979.00
2023-05-02T10:45:16.172Z,986.00
2023-05-02T10:46:16.253Z,976.00
2023-05-02T10:47:16.283Z,973.00
2023-05-02T10:48:16.205Z,974.00
2023-05-02T10:49:16.290Z,976.00
2023-05-02T10:50:16.213Z,985.00
2023-05-02T10:51:16.266Z,982.00
2023-05-02T10:52:16.303Z,971.00
2023-05-02T10:53:16.318Z,970.00
2023-05-02T10:54:16.318Z,976.00
2023-05-02T10:55:16.402Z,980.00
2023-05-02T10:56:16.294Z,973.00
2023-05-02T10:57:16.347Z,966.00
2023-05-02T10:58:16.335Z,960.00
2023-05-02T10:59:16.336Z,964.00
2023-05-02T11:00:16.345Z,967.00
2023-05-02T11:01:16.373Z,965.00
2023-05-02T11:02:16.393Z,969.00
2023-05-02T11:03:16.486Z,975.00
2023-05-02T11:04:16.377Z,964.00
2023-05-02T11:05:16.409Z,959.00
2023-05-02T11:06:16.499Z,961.00
2023-05-02T11:07:16.391Z,967.00
2023-05-02T11:08:17.164Z,948.00
2023-05-02T11:09:16.476Z,957.00
2023-05-02T11:10:16.453Z,949.00
2023-05-02T11:11:16.496Z,946.00
2023-05-02T11:12:16.500Z,952.00
2023-05-02T11:13:16.513Z,951.00
2023-05-02T11:14:17.597Z,950.00
2023-05-02T11:15:16.525Z,945.00
2023-05-02T11:16:16.568Z,941.00
2023-05-02T11:17:16.540Z,937.00
2023-05-02T11:18:16.623Z,933.00
2023-05-02T11:19:16.566Z,939.00
2023-05-02T11:20:16.558Z,938.00
2023-05-02T11:21:16.810Z,941.00
2023-05-02T11:22:16.620Z,955.00
2023-05-02T11:23:16.677Z,943.00
2023-05-02T11:24:16.825Z,941.00
2023-05-02T11:25:17.312Z,933.00
2023-05-02T11:26:16.688Z,926.00
2023-05-02T11:27:16.759Z,926.00
2023-05-02T11:28:16.620Z,924.00
2023-05-02T11:29:16.627Z,924.00
2023-05-02T11:30:16.717Z,908.00
2023-05-02T11:31:16.626Z,921.00
2023-05-02T11:32:16.683Z,931.00
2023-05-02T11:33:16.706Z,931.00
2023-05-02T11:34:16.703Z,922.00
2023-05-02T11:35:16.686Z,925.00
2023-05-02T11:36:16.725Z,910.00
2023-05-02T11:37:16.789Z,912.00
2023-05-02T11:38:16.709Z,906.00
2023-05-02T11:39:16.734Z,904.00
2023-05-02T11:40:16.728Z,911.00
2023-05-02T11:41:16.741Z,909.00
2023-05-02T11:42:16.748Z,892.00
2023-05-02T11:43:16.749Z,889.00
2023-05-02T11:44:16.772Z,886.00
2023-05-02T11:45:16.855Z,893.00
2023-05-02T11:46:16.843Z,893.00
2023-05-02T11:47:16.763Z,888.00
2023-05-02T11:48:16.896Z,890.00
2023-05-02T11:49:16.801Z,892.00
2023-05-02T11:50:16.808Z,887.00
2023-05-02T11:51:16.831Z,899.00
2023-05-02T11:52:16.803Z,884.00
2023-05-02T11:53:16.825Z,882.00
2023-05-02T11:54:16.877Z,883.00
2023-05-02T11:55:16.850Z,887.00
2023-05-02T11:56:16.864Z,885.00
2023-05-02T11:57:16.853Z,883.00
2023-05-02T11:58:16.827Z,869.00
2023-05-02T11:59:16.888Z,870.00
2023-05-02T12:00:16.883Z,857.00
2023-05-02T12:01:16.868Z,866.00
2023-05-02T12:02:16.859Z,871.00
2023-05-02T12:03:17.040Z,860.00
2023-05-02T12:04:16.866Z,862.00
2023-05-02T12:05:16.884Z,861.00
2023-05-02T12:06:16.908Z,861.00
2023-05-02T12:07:16.940Z,853.00
2023-05-02T12:08:16.836Z,852.00
2023-05-02T12:09:16.930Z,855.00
2023-05-02T12:10:16.885Z,850.00
2023-05-02T12:11:17.056Z,858.00
2023-05-02T12:12:16.897Z,862.00
2023-05-02T12:13:16.933Z,838.00
2023-05-02T12:14:17.030Z,845.00
2023-05-02T12:15:16.888Z,848.00
2023-05-02T12:16:17.069Z,859.00
2023-05-02T12:17:16.941Z,871.00
2023-05-02T12:18:16.946Z,851.00
2023-05-02T12:19:17.056Z,857.00
2023-05-02T12:20:17.300Z,855.00
2023-05-02T12:21:16.928Z,851.00
2023-05-02T12:22:17.007Z,855.00
2023-05-02T12:23:16.982Z,854.00
2023-05-02T12:24:17.337Z,859.00
2023-05-02T12:25:17.046Z,853.00